createdAt,value
2023-04-16T00:02:25.504Z,12.63
2023-04-16T00:05:27.842Z,12.00
2023-04-16T00:08:30.123Z,13.15
2023-04-16T00:11:32.269Z,12.68
2023-04-16T00:14:34.447Z,14.23
2023-04-16T00:17:40.548Z,14.27
2023-04-16T00:20:42.725Z,13.17
2023-04-16T00:23:44.814Z,13.18
2023-04-16T00:26:47.026Z,14.77
2023-04-16T00:29:49.163Z,13.00
2023-04-16T00:32:51.348Z,15.07
2023-04-16T00:35:53.592Z,13.32
2023-04-16T00:38:56.726Z,14.15
2023-04-16T00:41:58.850Z,13.27
2023-04-16T00:45:01.036Z,14.73
2023-04-16T00:48:03.557Z,14.40
2023-04-16T00:51:06.883Z,12.87
2023-04-16T00:54:09.075Z,13.38
2023-04-16T00:57:13.602Z,12.35
2023-04-16T01:00:16.176Z,12.07
2023-04-16T01:03:18.384Z,12.57
2023-04-16T01:06:21.513Z,15.27
2023-04-16T01:09:24.052Z,12.07
2023-04-16T01:12:26.420Z,11.27
2023-04-16T01:15:28.794Z,10.52
2023-04-16T01:18:30.910Z,12.55
2023-04-16T01:21:33.091Z,12.03
2023-04-16T01:24:35.548Z,11.20
2023-04-16T01:27:37.765Z,11.45
2023-04-16T01:30:39.898Z,11.03
2023-04-16T01:33:57.116Z,9.10
2023-04-16T01:36:59.372Z,10.50
2023-04-16T01:40:02.802Z,11.50
2023-04-16T01:43:05.083Z,10.32
2023-04-16T01:46:27.394Z,10.82
2023-04-16T01:49:29.584Z,12.32
2023-04-16T01:52:31.876Z,10.43
2023-04-16T01:55:34.365Z,11.38
2023-04-16T01:58:36.466Z,11.82
2023-04-16T02:01:38.994Z,10.80
2023-04-16T02:04:42.611Z,9.48
2023-04-16T02:07:44.734Z,10.80
2023-04-16T02:10:47.800Z,11.13
2023-04-16T02:13:49.995Z,12.50
2023-04-16T02:16:53.651Z,11.55
2023-04-16T02:20:12.395Z,11.63
2023-04-16T02:23:28.613Z,10.67
2023-04-16T02:26:33.243Z,8.93
2023-04-16T02:29:40.968Z,8.90
2023-04-16T02:32:49.756Z,8.70
2023-04-16T02:35:52.669Z,9.20
2023-04-16T02:38:55.237Z,8.85
2023-04-16T02:41:57.980Z,9.23
2023-04-16T02:45:00.217Z,8.85
2023-04-16T02:48:02.573Z,9.10
2023-04-16T02:51:05.358Z,8.05
2023-04-16T02:54:07.702Z,8.37
2023-04-16T02:57:09.905Z,7.82
2023-04-16T03:00:12.814Z,7.68
2023-04-16T03:03:15.005Z,9.17
2023-04-16T03:06:17.164Z,8.30
2023-04-16T03:09:19.343Z,7.72
2023-04-16T03:12:21.724Z,7.13
2023-04-16T03:15:24.836Z,6.32
2023-04-16T03:18:27.040Z,6.60
2023-04-16T03:21:29.202Z,8.27
2023-04-16T03:24:32.230Z,7.17
2023-04-16T03:27:35.276Z,6.38
2023-04-16T03:30:38.499Z,6.13
2023-04-16T03:33:42.494Z,6.67
2023-04-16T03:36:45.092Z,6.78
2023-04-16T03:39:47.559Z,7.13
2023-04-16T03:42:50.445Z,7.25
2023-04-16T03:45:52.772Z,7.55
2023-04-16T03:48:58.362Z,7.00
2023-04-16T03:52:00.561Z,8.25
2023-04-16T03:55:04.066Z,7.30
2023-04-16T03:58:07.108Z,7.40
2023-04-16T04:01:09.306Z,6.05
2023-04-16T04:04:12.882Z,7.03
2023-04-16T04:07:17.511Z,6.78
2023-04-16T04:10:19.847Z,6.85
2023-04-16T04:13:22.312Z,6.70
2023-04-16T04:16:26.017Z,5.90
2023-04-16T04:19:28.203Z,7.22
2023-04-16T04:22:31.774Z,6.78
2023-04-16T04:25:34.228Z,7.37
2023-04-16T04:28:36.402Z,6.63
2023-04-16T04:31:39.845Z,7.10
2023-04-16T04:34:43.262Z,5.57
2023-04-16T04:37:45.474Z,6.53
2023-04-16T04:40:52.968Z,5.80
2023-04-16T04:43:56.721Z,5.43
2023-04-16T04:47:00.834Z,6.60
2023-04-16T04:50:03.281Z,5.68
2023-04-16T04:53:10.195Z,4.88
2023-04-16T04:56:13.424Z,5.67
2023-04-16T04:59:16.337Z,5.95
2023-04-16T05:02:19.466Z,5.53
2023-04-16T05:05:21.787Z,5.77
2023-04-16T05:08:23.965Z,6.10
2023-04-16T05:11:26.084Z,6.80
2023-04-16T05:14:28.256Z,5.40
2023-04-16T05:17:30.397Z,4.20
2023-04-16T05:20:32.558Z,5.32
2023-04-16T05:23:34.709Z,5.63
2023-04-16T05:26:36.850Z,5.03
2023-04-16T05:29:39.002Z,5.05
2023-04-16T05:32:41.412Z,5.28
2023-04-16T05:35:43.634Z,4.83
2023-04-16T05:38:45.807Z,5.50
2023-04-16T05:41:47.941Z,5.18
2023-04-16T05:44:51.172Z,4.43
2023-04-16T05:47:53.391Z,5.30
2023-04-16T05:50:55.645Z,5.13
2023-04-16T05:53:57.827Z,5.78
2023-04-16T05:57:01.123Z,6.97
2023-04-16T06:00:03.756Z,4.70
2023-04-16T06:03:14.256Z,4.22
2023-04-16T06:06:16.576Z,5.00
2023-04-16T06:09:19.168Z,4.68
2023-04-16T06:12:21.266Z,5.35
2023-04-16T06:15:23.415Z,7.10
2023-04-16T06:18:25.659Z,4.65
2023-04-16T06:21:28.718Z,4.00
2023-04-16T06:24:31.091Z,4.68
2023-04-16T06:27:33.216Z,4.50
2023-04-16T06:30:35.566Z,4.22
2023-04-16T06:33:37.693Z,4.82
2023-04-16T06:36:39.815Z,4.47
2023-04-16T06:39:42.003Z,6.55
2023-04-16T06:42:45.550Z,4.38
2023-04-16T06:45:48.037Z,4.22
2023-04-16T06:48:50.542Z,3.53
2023-04-16T06:51:52.827Z,4.72
2023-04-16T06:54:54.989Z,3.88
2023-04-16T06:57:57.105Z,4.80
2023-04-16T07:00:59.432Z,4.65
2023-04-16T07:04:02.006Z,3.97
2023-04-16T07:07:04.659Z,5.27
2023-04-16T07:10:07.231Z,4.78
2023-04-16T07:13:09.395Z,3.97
2023-04-16T07:16:11.668Z,5.03
2023-04-16T07:19:13.925Z,3.92
2023-04-16T07:22:16.550Z,4.78
2023-04-16T07:25:18.728Z,3.97
2023-04-16T07:28:21.825Z,3.87
2023-04-16T07:31:24.035Z,3.90
2023-04-16T07:34:29.217Z,3.00
2023-04-16T07:37:31.393Z,3.47
2023-04-16T07:40:33.509Z,3.40
2023-04-16T07:43:35.816Z,4.00
2023-04-16T07:46:46.466Z,4.50
2023-04-16T07:49:50.658Z,3.35
2023-04-16T07:52:52.853Z,4.68
2023-04-16T07:55:55.795Z,4.07
2023-04-16T07:59:02.857Z,4.37
2023-04-16T08:02:13.620Z,3.33
2023-04-16T08:05:16.077Z,3.50
2023-04-16T08:08:18.195Z,3.80
2023-04-16T08:11:20.552Z,3.10
2023-04-16T08:14:22.807Z,4.20
2023-04-16T08:17:24.999Z,3.88
2023-04-16T08:20:29.347Z,3.15
2023-04-16T08:23:31.506Z,3.13
2023-04-16T08:26:33.598Z,3.50
2023-04-16T08:29:35.710Z,2.97
2023-04-16T08:32:38.142Z,6.20
2023-04-16T08:35:41.314Z,3.83
2023-04-16T08:38:43.451Z,2.70
2023-04-16T08:41:47.083Z,4.18
2023-04-16T08:44:49.976Z,3.80
2023-04-16T08:47:53.074Z,4.28
2023-04-16T08:50:55.644Z,3.78
2023-04-16T08:54:12.438Z,3.55
2023-04-16T08:57:19.755Z,3.28
2023-04-16T09:00:21.986Z,4.10
2023-04-16T09:03:24.386Z,4.20
2023-04-16T09:06:27.636Z,3.97
2023-04-16T09:09:30.132Z,3.97
2023-04-16T09:12:32.331Z,2.90
2023-04-16T09:15:35.553Z,3.40
2023-04-16T09:18:37.755Z,4.13
2023-04-16T09:21:41.718Z,3.53
2023-04-16T09:24:47.696Z,3.70
2023-04-16T09:27:50.888Z,2.63
2023-04-16T09:31:08.073Z,2.80
2023-04-16T09:34:10.339Z,2.72
2023-04-16T09:37:19.151Z,2.83
2023-04-16T09:40:26.155Z,3.47
2023-04-16T09:43:28.363Z,3.58
2023-04-16T09:46:31.813Z,3.20
2023-04-16T09:49:35.741Z,2.65
2023-04-16T09:52:40.905Z,2.33
2023-04-16T09:55:43.415Z,2.63
2023-04-16T09:58:46.512Z,2.25
2023-04-16T10:02:13.933Z,2.03
2023-04-16T10:05:20.119Z,4.40
2023-04-16T10:08:24.016Z,2.55
2023-04-16T10:11:26.382Z,2.40
2023-04-16T10:14:28.497Z,2.83
2023-04-16T10:17:31.599Z,4.07
2023-04-16T10:20:33.875Z,2.40
2023-04-16T10:23:36.298Z,2.13
2023-04-16T10:26:39.198Z,1.75
2023-04-16T10:29:41.433Z,1.55
2023-04-16T10:32:44.670Z,1.93
2023-04-16T10:35:52.324Z,1.52
2023-04-16T10:39:00.912Z,4.63
2023-04-16T10:42:08.510Z,1.53
2023-04-16T10:45:11.270Z,0.93
2023-04-16T10:48:14.875Z,1.83
2023-04-16T10:51:34.033Z,1.58
2023-04-16T10:54:36.590Z,1.27
2023-04-16T10:57:38.772Z,1.13
2023-04-16T11:00:51.180Z,1.63
2023-04-16T11:03:53.662Z,2.73
2023-04-16T11:07:08.222Z,2.28
2023-04-16T11:10:13.161Z,1.63
2023-04-16T11:13:16.190Z,2.07
2023-04-16T11:16:18.477Z,1.60
2023-04-16T11:19:20.891Z,1.10
2023-04-16T11:22:23.148Z,1.33
2023-04-16T11:25:30.126Z,1.13
2023-04-16T11:28:37.981Z,1.00
2023-04-16T11:31:40.376Z,1.77
2023-04-16T11:34:47.374Z,1.73
2023-04-16T11:37:49.589Z,1.35
2023-04-16T11:40:53.939Z,1.38
2023-04-16T11:43:56.445Z,2.17
2023-04-16T11:46:58.661Z,1.38
2023-04-16T11:50:27.273Z,2.10
2023-04-16T11:53:29.471Z,0.90
2023-04-16T11:56:34.218Z,1.88
2023-04-16T11:59:37.078Z,1.20
2023-04-16T12:02:59.426Z,0.93
2023-04-16T12:06:07.778Z,1.40
2023-04-16T12:09:26.172Z,3.00
2023-04-16T12:12:31.388Z,1.25
2023-04-16T12:15:51.450Z,1.63
2023-04-16T12:19:03.572Z,1.42
2023-04-16T12:22:05.657Z,1.48
2023-04-16T12:25:11.987Z,2.25
2023-04-16T12:28:14.438Z,2.05
2023-04-16T12:31:16.593Z,1.98
2023-04-16T12:34:20.106Z,1.55
2023-04-16T12:37:22.244Z,2.87
2023-04-16T12:40:24.485Z,1.10
2023-04-16T12:43:26.739Z,0.93
2023-04-16T12:46:29.011Z,1.90
2023-04-16T12:49:31.212Z,0.90
2023-04-16T12:52:34.363Z,1.85
2023-04-16T12:55:36.615Z,0.98
2023-04-16T12:58:38.820Z,1.77
2023-04-16T13:01:41.010Z,2.67
2023-04-16T13:04:43.294Z,1.48
2023-04-16T13:07:45.570Z,1.07
2023-04-16T13:10:47.817Z,1.50
2023-04-16T13:13:49.937Z,1.88
2023-04-16T13:16:52.118Z,2.20
2023-04-16T13:19:54.357Z,3.22
2023-04-16T13:22:56.705Z,0.82
2023-04-16T13:25:58.842Z,0.85
2023-04-16T13:29:01.057Z,1.33
2023-04-16T13:32:04.010Z,1.50
2023-04-16T13:35:06.474Z,0.75
2023-04-16T13:38:08.657Z,1.50
2023-04-16T13:41:10.826Z,1.23
2023-04-16T13:44:12.981Z,1.38
2023-04-16T13:47:15.240Z,2.60
2023-04-16T13:50:17.488Z,0.82
2023-04-16T13:53:19.670Z,1.02
2023-04-16T13:56:21.899Z,1.88
2023-04-16T13:59:24.043Z,0.60
2023-04-16T14:02:26.722Z,1.27
2023-04-16T14:05:29.008Z,3.83
2023-04-16T14:08:31.657Z,0.87
2023-04-16T14:11:33.855Z,1.02
2023-04-16T14:14:36.253Z,0.47
2023-04-16T14:17:38.557Z,1.33
2023-04-16T14:20:40.742Z,0.77
2023-04-16T14:23:42.849Z,0.90
2023-04-16T14:26:44.961Z,0.65
2023-04-16T14:29:47.134Z,1.42
2023-04-16T14:32:49.280Z,0.90
2023-04-16T14:35:52.096Z,0.77
2023-04-16T14:38:54.294Z,0.83
2023-04-16T14:41:56.514Z,1.30
2023-04-16T14:44:58.659Z,1.55
2023-04-16T14:48:00.912Z,0.80
2023-04-16T14:51:03.061Z,2.03
2023-04-16T14:54:05.395Z,0.70
2023-04-16T14:57:07.636Z,1.77
2023-04-16T15:00:11.022Z,0.75
2023-04-16T15:03:13.410Z,1.40
2023-04-16T15:06:16.608Z,0.80
2023-04-16T15:09:18.982Z,1.03
2023-04-16T15:12:21.131Z,1.08
2023-04-16T15:15:23.226Z,0.70
2023-04-16T15:18:25.424Z,1.00
2023-04-16T15:21:28.065Z,1.30
2023-04-16T15:24:30.296Z,0.95
2023-04-16T15:27:32.493Z,1.08
2023-04-16T15:30:41.345Z,1.38
2023-04-16T15:33:43.543Z,1.35
2023-04-16T15:36:45.701Z,1.00
2023-04-16T15:39:47.834Z,1.83
2023-04-16T15:42:50.015Z,1.13
2023-04-16T15:45:52.133Z,0.52
2023-04-16T15:48:54.260Z,1.53
2023-04-16T15:51:56.515Z,1.95
2023-04-16T15:54:58.652Z,1.33
2023-04-16T15:58:00.769Z,1.75
2023-04-16T16:01:02.869Z,1.33
2023-04-16T16:04:06.850Z,0.55
2023-04-16T16:07:09.248Z,0.85
2023-04-16T16:10:12.930Z,1.43
2023-04-16T16:13:18.140Z,1.10
2023-04-16T16:16:21.715Z,2.80
2023-04-16T16:19:23.973Z,1.53
2023-04-16T16:22:26.231Z,0.88
2023-04-16T16:25:29.041Z,0.73
2023-04-16T16:28:31.208Z,1.48
2023-04-16T16:31:33.542Z,0.52
2023-04-16T16:34:35.754Z,0.98
2023-04-16T16:37:38.492Z,3.03
2023-04-16T16:40:40.728Z,0.93
2023-04-16T16:43:42.937Z,1.58
2023-04-16T16:46:45.141Z,0.70
2023-04-16T16:49:48.300Z,1.80
2023-04-16T16:52:50.540Z,1.38
2023-04-16T16:55:52.775Z,2.25
2023-04-16T16:58:55.016Z,2.25
2023-04-16T17:01:57.199Z,1.73
2023-04-16T17:04:59.416Z,1.75
2023-04-16T17:08:01.615Z,1.23
2023-04-16T17:11:04.271Z,0.90
2023-04-16T17:14:06.462Z,1.25
2023-04-16T17:17:08.772Z,2.25
2023-04-16T17:20:12.476Z,1.40
2023-04-16T17:23:14.704Z,1.63
2023-04-16T17:26:16.940Z,1.10
2023-04-16T17:29:20.789Z,2.70
2023-04-16T17:32:22.985Z,0.95
2023-04-16T17:35:25.410Z,2.42
2023-04-16T17:38:27.566Z,2.58
2023-04-16T17:41:29.787Z,1.60
2023-04-16T17:44:31.894Z,2.05
2023-04-16T17:47:37.422Z,1.48
2023-04-16T17:50:39.865Z,0.93
2023-04-16T17:53:43.411Z,1.45
2023-04-16T17:56:46.250Z,2.30
2023-04-16T17:59:48.398Z,1.63
2023-04-16T18:02:52.374Z,2.55
2023-04-16T18:05:54.657Z,2.85
2023-04-16T18:08:56.812Z,2.63
2023-04-16T18:11:58.906Z,1.40
2023-04-16T18:15:01.018Z,4.22
2023-04-16T18:18:03.292Z,3.17
2023-04-16T18:21:05.698Z,1.37
2023-04-16T18:24:08.276Z,2.25
2023-04-16T18:27:10.596Z,1.98
2023-04-16T18:30:19.892Z,5.05
2023-04-16T18:33:38.976Z,3.30
2023-04-16T18:36:47.607Z,3.50
2023-04-16T18:39:49.762Z,3.45
2023-04-16T18:42:51.880Z,2.60
2023-04-16T18:45:54.039Z,3.45
2023-04-16T18:48:56.440Z,4.90
2023-04-16T18:51:58.660Z,3.73
2023-04-16T18:55:00.856Z,3.40
2023-04-16T18:58:03.013Z,3.03
2023-04-16T19:01:07.776Z,3.28
2023-04-16T19:04:10.055Z,3.03
2023-04-16T19:07:12.197Z,2.90
2023-04-16T19:10:14.444Z,3.88
2023-04-16T19:13:16.713Z,3.43
2023-04-16T19:16:18.881Z,4.78
2023-04-16T19:19:21.102Z,5.80
2023-04-16T19:22:23.336Z,3.27
2023-04-16T19:25:25.455Z,3.45
2023-04-16T19:28:28.321Z,3.85
2023-04-16T19:31:30.529Z,2.72
2023-04-16T19:34:33.937Z,3.55
2023-04-16T19:37:36.150Z,2.72
2023-04-16T19:40:38.478Z,3.10
2023-04-16T19:43:40.732Z,2.93
2023-04-16T19:46:42.911Z,2.95
2023-04-16T19:49:47.405Z,4.10
2023-04-16T19:52:49.543Z,4.00
2023-04-16T19:55:51.635Z,3.60
2023-04-16T19:58:53.756Z,2.47
2023-04-16T20:01:55.951Z,3.10
2023-04-16T20:05:00.189Z,3.20
2023-04-16T20:08:03.787Z,2.60
2023-04-16T20:11:08.392Z,2.30
2023-04-16T20:14:10.656Z,3.17
2023-04-16T20:17:18.650Z,2.42
2023-04-16T20:20:23.522Z,4.95
2023-04-16T20:23:25.746Z,3.90
2023-04-16T20:26:33.384Z,3.15
2023-04-16T20:29:35.743Z,3.28
2023-04-16T20:32:37.932Z,3.25
2023-04-16T20:35:40.110Z,3.10
2023-04-16T20:38:43.640Z,2.58
2023-04-16T20:41:56.588Z,3.97
2023-04-16T20:45:00.652Z,2.30
2023-04-16T20:48:02.979Z,2.72
2023-04-16T20:51:06.272Z,3.10
2023-04-16T20:54:10.114Z,3.20
2023-04-16T20:57:12.267Z,4.40
2023-04-16T21:00:15.497Z,3.42
2023-04-16T21:03:18.424Z,2.67
2023-04-16T21:06:22.494Z,2.88
2023-04-16T21:09:24.694Z,2.17
2023-04-16T21:12:27.293Z,2.38
2023-04-16T21:15:30.921Z,2.40
2023-04-16T21:18:33.131Z,2.55
2023-04-16T21:21:35.386Z,3.40
2023-04-16T21:24:37.540Z,2.63
2023-04-16T21:27:39.838Z,3.65
2023-04-16T21:30:42.045Z,3.90
2023-04-16T21:33:44.198Z,3.05
2023-04-16T21:36:46.591Z,2.33
2023-04-16T21:39:48.709Z,3.25
2023-04-16T21:42:50.812Z,1.77
2023-04-16T21:45:56.132Z,2.13
2023-04-16T21:48:58.332Z,2.33
2023-04-16T21:52:02.350Z,2.60
2023-04-16T21:55:05.063Z,2.37
2023-04-16T21:58:07.247Z,2.40
2023-04-16T22:01:10.988Z,2.75
2023-04-16T22:04:14.034Z,2.70
2023-04-16T22:07:16.865Z,2.58
2023-04-16T22:10:19.198Z,2.22
2023-04-16T22:13:21.689Z,2.40
2023-04-16T22:16:24.833Z,2.97
2023-04-16T22:19:27.305Z,2.35
2023-04-16T22:22:29.466Z,2.20
2023-04-16T22:25:31.672Z,1.60
2023-04-16T22:28:33.795Z,2.67
2023-04-16T22:31:36.112Z,2.55
2023-04-16T22:34:38.436Z,2.38
2023-04-16T22:37:40.852Z,3.03
2023-04-16T22:40:43.001Z,5.05
2023-04-16T22:43:45.206Z,2.17
2023-04-16T22:46:47.546Z,2.80
2023-04-16T22:49:50.167Z,2.58
2023-04-16T22:52:52.328Z,3.80
2023-04-16T22:55:54.560Z,1.70
2023-04-16T22:58:57.220Z,2.10
2023-04-16T23:01:59.463Z,1.75
2023-04-16T23:05:01.716Z,3.10
2023-04-16T23:08:03.931Z,2.22
2023-04-16T23:11:06.410Z,2.55
2023-04-16T23:14:09.648Z,3.05
2023-04-16T23:17:13.685Z,3.70
2023-04-16T23:20:15.968Z,2.22
2023-04-16T23:23:18.282Z,2.80
2023-04-16T23:26:20.561Z,2.00
2023-04-16T23:29:22.687Z,1.95
2023-04-16T23:32:24.870Z,1.48
2023-04-16T23:35:27.045Z,2.70
2023-04-16T23:38:29.230Z,2.42
2023-04-16T23:41:31.325Z,4.90
2023-04-16T23:44:33.537Z,4.93
2023-04-16T23:47:38.789Z,1.70
2023-04-16T23:50:41.000Z,1.65
2023-04-16T23:53:43.118Z,2.67
2023-04-16T23:56:45.501Z,2.00
2023-04-16T23:59:47.631Z,2.92
